Time;durP1;ratioP1;P1;durP2;ratioP2;P2;SDS_P1;SDS_P2;PMS_P1;PMS_P2;Temp;Humidity;BMP_temperature;BMP_pressure;BME280_temperature;BME280_humidity;BME280_pressure;Samples;Min_cycle;Max_cycle;Signal;HPM_P1;HPM_P2
2021/06/17 00:00:35;;;;;;;3.33;2.17;;;;;;;;;;5102757;27;20019;-56
2021/06/17 00:03:01;;;;;;;7.50;2.80;;;;;;;;;;5106203;27;20355;-55
2021/06/17 00:05:30;;;;;;;8.30;3.88;;;;;;;;;;5102696;27;20476;-56
2021/06/17 00:07:56;;;;;;;7.38;4.05;;;;;;;;;;5101990;27;21438;-55
2021/06/17 00:10:24;;;;;;;3.85;2.72;;;;;;;;;;5105863;27;20027;-54
2021/06/17 00:12:50;;;;;;;5.97;2.08;;;;;;;;;;5099601;27;20107;-55
2021/06/17 00:15:16;;;;;;;2.88;2.05;;;;;;;;;;5103205;28;20656;-55
2021/06/17 00:17:42;;;;;;;5.68;3.55;;;;;;;;;;5103779;27;20083;-56
2021/06/17 00:20:08;;;;;;;9.73;3.38;;;;;;;;;;5100545;27;20026;-55
2021/06/17 00:22:33;;;;;;;9.98;3.35;;;;;;;;;;5103857;27;20417;-56
2021/06/17 00:24:59;;;;;;;3.72;2.05;;;;;;;;;;5101719;27;20024;-54
2021/06/17 00:27:26;;;;;;;7.10;3.53;;;;;;;;;;5095741;27;20024;-54
2021/06/17 00:29:51;;;;;;;13.65;5.60;;;;;;;;;;5101654;27;20106;-55
2021/06/17 00:32:17;;;;;;;6.28;3.53;;;;;;;;;;5103053;27;20107;-55
2021/06/17 00:34:42;;;;;;;6.60;3.22;;;;;;;;;;5107173;27;20367;-55
2021/06/17 00:37:07;;;;;;;7.50;4.35;;;;;;;;;;5110977;27;20029;-54
2021/06/17 00:39:33;;;;;;;9.82;4.10;;;;;;;;;;5107528;27;20050;-50
2021/06/17 00:41:58;;;;;;;8.98;4.75;;;;;;;;;;5103479;27;20518;-47
2021/06/17 00:44:23;;;;;;;10.57;4.75;;;;;;;;;;5104446;27;20383;-55
2021/06/17 00:46:49;;;;;;;9.05;6.40;;;;;;;;;;5104640;27;20475;-54
2021/06/17 00:49:14;;;;;;;12.40;6.40;;;;;;;;;;5107014;27;20083;-55
2021/06/17 00:51:39;;;;;;;12.70;5.85;;;;;;;;;;5102293;27;20015;-54
2021/06/17 00:54:05;;;;;;;6.88;4.53;;;;;;;;;;5101488;27;20434;-56
2021/06/17 00:56:30;;;;;;;7.70;4.78;;;;;;;;;;5100090;27;20035;-53
2021/06/17 00:58:57;;;;;;;8.65;6.63;;;;;;;;;;5101959;27;20020;-52
2021/06/17 01:01:22;;;;;;;10.73;5.32;;;;;;;;;;5103130;27;20012;-55
2021/06/17 01:03:48;;;;;;;5.07;4.32;;;;;;;;;;5103856;27;20020;-52
2021/06/17 01:06:13;;;;;;;14.90;6.55;;;;;;;;;;5103075;27;20035;-52
2021/06/17 01:08:44;;;;;;;7.32;4.63;;;;;;;;;;5107272;27;20068;-54
2021/06/17 01:11:30;;;;;;;12.90;6.80;;;;;;;;;;5104879;28;20028;-54
2021/06/17 01:13:57;;;;;;;9.20;4.82;;;;;;;;;;5103947;28;20490;-55
2021/06/17 01:16:38;;;;;;;5.88;5.25;;;;;;;;;;5103018;28;20032;-51
2021/06/17 01:19:23;;;;;;;16.45;7.10;;;;;;;;;;5092334;28;20391;-52
2021/06/17 01:21:57;;;;;;;9.20;6.70;;;;;;;;;;5066285;28;20047;-54
2021/06/17 01:24:41;;;;;;;7.13;4.22;;;;;;;;;;5101261;28;20034;-52
2021/06/17 01:27:13;;;;;;;14.07;6.13;;;;;;;;;;5101405;28;20387;-53
2021/06/17 01:29:40;;;;;;;5.13;4.63;;;;;;;;;;5100686;28;20099;-50
2021/06/17 01:32:06;;;;;;;6.50;5.18;;;;;;;;;;5101157;28;20059;-53
2021/06/17 01:34:31;;;;;;;10.80;4.40;;;;;;;;;;5105102;28;20019;-54
2021/06/17 01:37:07;;;;;;;13.63;5.72;;;;;;;;;;5104365;28;20017;-54
2021/06/17 01:39:33;;;;;;;12.90;7.00;;;;;;;;;;5101628;28;20378;-52
2021/06/17 01:41:59;;;;;;;8.55;6.28;;;;;;;;;;5098968;28;20016;-51
2021/06/17 01:44:25;;;;;;;10.10;6.20;;;;;;;;;;5099469;28;20026;-53
2021/06/17 01:46:51;;;;;;;6.65;5.95;;;;;;;;;;5102180;27;20012;-52
2021/06/17 01:49:17;;;;;;;9.27;6.63;;;;;;;;;;5109217;27;20028;-55
2021/06/17 01:51:43;;;;;;;5.53;4.07;;;;;;;;;;5106743;27;20072;-53
2021/06/17 01:54:09;;;;;;;7.63;5.70;;;;;;;;;;5103593;27;20031;-54
2021/06/17 01:56:35;;;;;;;14.55;6.88;;;;;;;;;;5101974;27;20047;-51
2021/06/17 01:59:02;;;;;;;10.20;5.95;;;;;;;;;;5101122;27;20583;-52
2021/06/17 02:01:31;;;;;;;8.75;4.85;;;;;;;;;;5107381;27;20034;-53
2021/06/17 02:03:56;;;;;;;13.05;6.50;;;;;;;;;;5098470;27;20424;-52
2021/06/17 02:06:22;;;;;;;12.88;5.60;;;;;;;;;;5106755;27;20046;-50
2021/06/17 02:08:51;;;;;;;10.30;6.53;;;;;;;;;;5106444;27;20054;-52
2021/06/17 02:11:16;;;;;;;9.45;6.35;;;;;;;;;;5105997;27;20057;-53
2021/06/17 02:13:42;;;;;;;10.88;6.57;;;;;;;;;;5105475;27;20803;-53
2021/06/17 02:16:08;;;;;;;11.02;6.47;;;;;;;;;;5102764;27;20043;-54
2021/06/17 02:18:34;;;;;;;8.48;5.80;;;;;;;;;;5105116;27;20084;-53
2021/06/17 02:21:00;;;;;;;9.30;6.82;;;;;;;;;;5099646;27;20473;-53
2021/06/17 02:23:27;;;;;;;9.38;6.53;;;;;;;;;;5112397;27;20023;-53
2021/06/17 02:25:54;;;;;;;19.63;9.15;;;;;;;;;;5104412;27;20044;-52
2021/06/17 02:28:20;;;;;;;28.60;7.60;;;;;;;;;;5104345;27;20033;-54
2021/06/17 02:30:46;;;;;;;11.55;6.25;;;;;;;;;;5104565;27;20106;-53
2021/06/17 02:33:13;;;;;;;8.70;6.00;;;;;;;;;;5101567;27;20024;-53
2021/06/17 02:35:42;;;;;;;13.45;5.72;;;;;;;;;;5100246;27;20246;-52
2021/06/17 02:38:08;;;;;;;8.05;4.65;;;;;;;;;;5105387;27;20068;-53
2021/06/17 02:40:36;;;;;;;13.00;6.50;;;;;;;;;;5106547;27;20027;-51
2021/06/17 02:43:03;;;;;;;17.27;7.43;;;;;;;;;;5103279;27;20100;-53
2021/06/17 02:45:29;;;;;;;14.35;6.47;;;;;;;;;;5103755;27;20038;-55
2021/06/17 02:47:55;;;;;;;11.90;6.18;;;;;;;;;;5101144;27;20023;-53
2021/06/17 02:50:20;;;;;;;6.25;5.30;;;;;;;;;;5105236;27;20118;-53
2021/06/17 02:52:45;;;;;;;8.25;5.78;;;;;;;;;;5104142;27;20086;-55
2021/06/17 02:55:11;;;;;;;13.93;5.85;;;;;;;;;;5107313;27;20023;-54
2021/06/17 02:57:56;;;;;;;11.60;6.03;;;;;;;;;;5103654;27;20035;-53
2021/06/17 03:00:24;;;;;;;17.60;5.97;;;;;;;;;;5086115;27;20024;-53
2021/06/17 03:03:02;;;;;;;8.63;4.75;;;;;;;;;;5108795;27;20016;-54
2021/06/17 03:05:33;;;;;;;10.02;5.97;;;;;;;;;;5107560;27;20012;-54
2021/06/17 03:08:00;;;;;;;15.25;7.40;;;;;;;;;;5105044;27;20050;-53
2021/06/17 03:10:27;;;;;;;15.43;6.95;;;;;;;;;;5103209;27;20023;-53
2021/06/17 03:12:54;;;;;;;10.13;6.60;;;;;;;;;;5107340;27;20106;-54
2021/06/17 03:15:19;;;;;;;13.93;7.93;;;;;;;;;;5103172;27;20031;-54
2021/06/17 03:17:46;;;;;;;15.20;7.80;;;;;;;;;;5102030;27;20036;-52
2021/06/17 03:20:13;;;;;;;8.52;6.22;;;;;;;;;;5100626;27;20073;-54
2021/06/17 03:22:41;;;;;;;16.33;6.68;;;;;;;;;;5107288;27;20024;-53
2021/06/17 03:25:08;;;;;;;18.75;6.53;;;;;;;;;;5099813;27;20140;-53
2021/06/17 03:27:34;;;;;;;7.15;6.40;;;;;;;;;;5104382;27;20016;-53
2021/06/17 03:30:00;;;;;;;12.18;7.97;;;;;;;;;;5108892;27;20020;-53
2021/06/17 03:32:27;;;;;;;9.73;6.75;;;;;;;;;;5110296;27;20059;-52
2021/06/17 03:34:53;;;;;;;11.30;7.38;;;;;;;;;;5111210;27;20024;-54
2021/06/17 03:37:20;;;;;;;21.40;7.30;;;;;;;;;;5110031;27;20385;-53
2021/06/17 03:39:46;;;;;;;14.77;7.72;;;;;;;;;;5105320;27;20150;-50
2021/06/17 03:42:12;;;;;;;8.75;6.60;;;;;;;;;;5100195;27;20024;-53
2021/06/17 03:44:41;;;;;;;10.70;7.15;;;;;;;;;;5104527;27;20016;-55
2021/06/17 03:47:07;;;;;;;14.57;8.43;;;;;;;;;;5113588;27;20027;-52
2021/06/17 03:49:34;;;;;;;13.43;7.35;;;;;;;;;;5106065;27;20075;-52
2021/06/17 03:52:01;;;;;;;10.48;7.63;;;;;;;;;;5110694;27;20030;-50
2021/06/17 03:54:27;;;;;;;10.65;7.43;;;;;;;;;;5103257;27;20027;-52
2021/06/17 03:56:57;;;;;;;12.13;6.97;;;;;;;;;;5100938;27;20051;-54
2021/06/17 03:59:24;;;;;;;20.47;7.27;;;;;;;;;;5098654;27;20040;-54
2021/06/17 04:01:50;;;;;;;14.18;7.68;;;;;;;;;;5103661;27;20064;-53
2021/06/17 04:04:15;;;;;;;21.17;6.68;;;;;;;;;;5103267;27;20574;-54
2021/06/17 04:06:41;;;;;;;12.40;6.65;;;;;;;;;;5104291;27;20040;-54
2021/06/17 04:09:06;;;;;;;8.45;7.13;;;;;;;;;;5100827;27;20624;-52
2021/06/17 04:11:32;;;;;;;7.78;6.63;;;;;;;;;;5101321;27;20112;-52
2021/06/17 04:13:57;;;;;;;13.82;5.88;;;;;;;;;;5103404;27;20426;-54
2021/06/17 04:16:26;;;;;;;8.52;6.30;;;;;;;;;;5102946;27;20063;-51
2021/06/17 04:18:53;;;;;;;13.23;7.25;;;;;;;;;;5106363;27;20482;-51
2021/06/17 04:21:19;;;;;;;16.58;6.70;;;;;;;;;;5104978;27;20030;-54
2021/06/17 04:23:46;;;;;;;17.15;6.72;;;;;;;;;;5112883;27;20019;-51
2021/06/17 04:26:12;;;;;;;15.45;7.57;;;;;;;;;;5108425;27;20020;-53
2021/06/17 04:28:37;;;;;;;23.77;8.05;;;;;;;;;;5101565;27;20382;-52
2021/06/17 04:31:02;;;;;;;9.85;6.63;;;;;;;;;;5101486;27;20020;-53
2021/06/17 04:33:28;;;;;;;22.42;6.97;;;;;;;;;;5099413;27;20016;-51
2021/06/17 04:35:59;;;;;;;14.43;6.63;;;;;;;;;;5103317;27;20111;-52
2021/06/17 04:38:25;;;;;;;14.10;7.18;;;;;;;;;;5103066;27;20561;-52
2021/06/17 04:40:51;;;;;;;6.60;5.93;;;;;;;;;;5099580;27;20083;-51
2021/06/17 04:43:21;;;;;;;12.32;7.25;;;;;;;;;;5096407;27;20019;-53
2021/06/17 04:45:47;;;;;;;12.27;6.88;;;;;;;;;;5101868;27;20141;-52
2021/06/17 04:48:12;;;;;;;17.60;6.78;;;;;;;;;;5100943;27;20106;-53
2021/06/17 04:50:39;;;;;;;10.20;6.47;;;;;;;;;;5103994;27;20024;-52
2021/06/17 04:53:15;;;;;;;16.00;7.57;;;;;;;;;;5104015;27;20107;-52
2021/06/17 04:55:45;;;;;;;21.08;8.68;;;;;;;;;;5103481;28;20020;-52
2021/06/17 04:58:11;;;;;;;12.53;6.93;;;;;;;;;;5102346;27;20055;-55
2021/06/17 05:00:36;;;;;;;14.82;7.18;;;;;;;;;;5101653;27;20260;-51
2021/06/17 05:03:02;;;;;;;13.57;6.15;;;;;;;;;;5101019;27;20054;-52
2021/06/17 05:05:27;;;;;;;16.23;9.18;;;;;;;;;;5096031;28;20035;-50
2021/06/17 05:10:48;;;;;;;16.95;8.27;;;;;;;;;;5101321;27;20101;-51
2021/06/17 05:10:48;;;;;;;28.13;6.95;;;;;;;;;;5101049;28;20398;-50
2021/06/17 05:13:14;;;;;;;18.05;5.68;;;;;;;;;;5103486;28;20028;-52
2021/06/17 05:15:39;;;;;;;18.90;5.85;;;;;;;;;;5106062;27;20024;-52
2021/06/17 05:18:05;;;;;;;21.73;8.23;;;;;;;;;;5102636;28;20020;-53
2021/06/17 05:20:30;;;;;;;17.65;5.90;;;;;;;;;;5106583;27;20012;-51
2021/06/17 05:22:56;;;;;;;8.65;3.90;;;;;;;;;;5113596;27;20015;-52
2021/06/17 05:25:21;;;;;;;8.77;3.72;;;;;;;;;;5110296;27;20020;-54
2021/06/17 05:27:47;;;;;;;34.58;6.88;;;;;;;;;;5102873;27;20493;-52
2021/06/17 05:30:13;;;;;;;18.52;5.53;;;;;;;;;;5102261;27;20483;-51
2021/06/17 05:32:39;;;;;;;30.63;6.07;;;;;;;;;;5105764;27;20024;-52
2021/06/17 05:35:04;;;;;;;17.50;6.07;;;;;;;;;;5107356;27;20031;-52
2021/06/17 05:37:30;;;;;;;21.92;6.60;;;;;;;;;;5106859;27;20129;-54
2021/06/17 05:39:55;;;;;;;13.30;6.57;;;;;;;;;;5109922;27;20016;-54
2021/06/17 05:42:20;;;;;;;11.85;6.78;;;;;;;;;;5108497;27;20027;-52
2021/06/17 05:44:46;;;;;;;25.58;6.60;;;;;;;;;;5103456;27;20463;-52
2021/06/17 05:47:13;;;;;;;14.20;4.28;;;;;;;;;;5103404;27;20019;-52
2021/06/17 05:49:38;;;;;;;7.63;4.72;;;;;;;;;;5109332;27;20099;-48
2021/06/17 05:52:04;;;;;;;12.85;6.85;;;;;;;;;;5112396;27;20034;-47
2021/06/17 05:54:29;;;;;;;29.13;6.88;;;;;;;;;;5108907;27;20019;-47
2021/06/17 05:56:55;;;;;;;14.80;5.90;;;;;;;;;;5107734;27;20046;-50
2021/06/17 05:59:20;;;;;;;9.77;5.93;;;;;;;;;;5104968;27;20035;-56
2021/06/17 06:01:45;;;;;;;15.60;5.63;;;;;;;;;;5111597;27;20091;-56
2021/06/17 06:04:11;;;;;;;15.07;7.82;;;;;;;;;;5108975;27;20572;-56
2021/06/17 06:06:36;;;;;;;25.75;8.88;;;;;;;;;;5106692;27;20072;-56
2021/06/17 06:09:01;;;;;;;13.98;5.97;;;;;;;;;;5113929;27;20541;-56
2021/06/17 06:11:27;;;;;;;15.60;6.95;;;;;;;;;;5104832;27;20023;-56
2021/06/17 06:13:52;;;;;;;7.93;5.13;;;;;;;;;;5107495;27;20335;-56
2021/06/17 06:16:17;;;;;;;29.42;7.75;;;;;;;;;;5108014;27;20073;-56
2021/06/17 06:18:43;;;;;;;43.30;7.00;;;;;;;;;;5106330;27;20020;-56
2021/06/17 06:21:08;;;;;;;20.38;6.90;;;;;;;;;;5108019;27;20028;-55
2021/06/17 06:23:33;;;;;;;13.05;7.63;;;;;;;;;;5104976;27;20023;-56
2021/06/17 06:25:59;;;;;;;28.67;7.53;;;;;;;;;;5101201;27;20019;-56
2021/06/17 06:28:26;;;;;;;27.58;9.27;;;;;;;;;;5102394;27;20486;-56
2021/06/17 06:30:51;;;;;;;17.65;7.78;;;;;;;;;;5112895;27;20030;-55
2021/06/17 06:33:17;;;;;;;25.55;8.55;;;;;;;;;;5114767;27;20095;-55
2021/06/17 06:35:43;;;;;;;13.07;7.35;;;;;;;;;;5113300;27;20062;-56
2021/06/17 06:38:08;;;;;;;11.40;6.00;;;;;;;;;;5107023;27;20130;-53
2021/06/17 06:40:34;;;;;;;31.92;7.43;;;;;;;;;;5100096;27;20493;-52
2021/06/17 06:42:59;;;;;;;16.00;8.15;;;;;;;;;;5101645;27;20073;-46
2021/06/17 06:45:25;;;;;;;21.80;7.45;;;;;;;;;;5108200;27;20073;-50
2021/06/17 06:47:51;;;;;;;23.35;7.38;;;;;;;;;;5106357;27;20059;-49
2021/06/17 06:50:17;;;;;;;17.00;6.88;;;;;;;;;;5108484;27;20073;-52
2021/06/17 06:52:42;;;;;;;10.85;6.03;;;;;;;;;;5107231;27;20024;-51
2021/06/17 06:55:08;;;;;;;16.52;6.47;;;;;;;;;;5095372;28;20118;-46
2021/06/17 06:57:34;;;;;;;17.23;6.35;;;;;;;;;;5095934;27;20494;-49
2021/06/17 06:59:59;;;;;;;16.23;7.18;;;;;;;;;;5099362;27;20513;-49
2021/06/17 07:02:24;;;;;;;19.65;7.10;;;;;;;;;;5103614;27;20531;-46
2021/06/17 07:04:50;;;;;;;9.77;3.28;;;;;;;;;;5101145;27;20096;-47
2021/06/17 07:07:15;;;;;;;25.02;7.60;;;;;;;;;;5102573;27;20043;-47
2021/06/17 07:09:40;;;;;;;15.68;7.18;;;;;;;;;;5104925;27;20463;-48
2021/06/17 07:12:06;;;;;;;13.75;5.03;;;;;;;;;;5106895;27;20019;-49
2021/06/17 07:14:34;;;;;;;18.55;5.80;;;;;;;;;;5103754;27;20016;-46
2021/06/17 07:17:00;;;;;;;24.75;5.47;;;;;;;;;;5101634;27;20034;-49
2021/06/17 07:19:25;;;;;;;31.25;8.00;;;;;;;;;;5103743;27;20015;-49
2021/06/17 07:21:51;;;;;;;23.52;5.80;;;;;;;;;;5106245;27;20027;-51
2021/06/17 07:24:16;;;;;;;24.05;6.63;;;;;;;;;;5115025;27;20024;-50
2021/06/17 07:26:41;;;;;;;21.05;4.57;;;;;;;;;;5102972;27;20023;-48
2021/06/17 07:29:07;;;;;;;23.83;5.43;;;;;;;;;;5097572;27;20028;-50
2021/06/17 07:31:32;;;;;;;25.02;7.75;;;;;;;;;;5100935;27;20358;-51
2021/06/17 07:33:57;;;;;;;20.25;5.35;;;;;;;;;;5099304;27;20430;-51
2021/06/17 07:36:23;;;;;;;12.57;6.20;;;;;;;;;;5102805;27;20471;-50
2021/06/17 07:38:48;;;;;;;17.25;6.82;;;;;;;;;;5101245;27;20023;-50
2021/06/17 07:41:14;;;;;;;13.98;7.45;;;;;;;;;;5099858;27;20015;-47
2021/06/17 07:43:39;;;;;;;46.80;10.55;;;;;;;;;;5102238;27;20016;-48
2021/06/17 07:46:05;;;;;;;20.73;9.05;;;;;;;;;;5098192;27;20386;-43
2021/06/17 07:48:31;;;;;;;21.80;5.90;;;;;;;;;;5100011;27;20110;-45
2021/06/17 07:50:56;;;;;;;24.73;5.72;;;;;;;;;;5101183;27;20027;-51
2021/06/17 07:53:21;;;;;;;24.98;6.95;;;;;;;;;;5103296;27;20032;-55
2021/06/17 07:55:47;;;;;;;12.10;6.05;;;;;;;;;;5100227;27;20035;-50
2021/06/17 07:58:13;;;;;;;11.32;5.68;;;;;;;;;;5104888;27;20027;-53
2021/06/17 08:00:38;;;;;;;22.67;8.45;;;;;;;;;;5101627;27;20038;-53
2021/06/17 08:03:04;;;;;;;19.23;7.13;;;;;;;;;;5104991;27;20029;-51
2021/06/17 08:05:29;;;;;;;7.40;5.00;;;;;;;;;;5099880;27;20019;-57
2021/06/17 08:07:55;;;;;;;12.77;5.63;;;;;;;;;;5095506;27;20418;-57
2021/06/17 08:10:20;;;;;;;35.67;8.02;;;;;;;;;;5098533;27;20024;-50
2021/06/17 08:12:45;;;;;;;21.50;8.82;;;;;;;;;;5100612;27;20055;-57
2021/06/17 08:15:11;;;;;;;27.85;6.78;;;;;;;;;;5095941;27;20443;-54
2021/06/17 08:17:36;;;;;;;21.02;5.80;;;;;;;;;;5102226;27;20023;-50
2021/06/17 08:20:02;;;;;;;19.67;7.32;;;;;;;;;;5099490;27;20035;-54
2021/06/17 08:22:28;;;;;;;20.95;7.93;;;;;;;;;;5098390;27;20028;-54
2021/06/17 08:24:54;;;;;;;8.85;5.60;;;;;;;;;;5100999;27;20027;-51
2021/06/17 08:27:19;;;;;;;12.68;6.32;;;;;;;;;;5097329;27;20495;-53
2021/06/17 08:29:45;;;;;;;8.23;6.55;;;;;;;;;;5098527;28;20027;-53
2021/06/17 08:32:10;;;;;;;13.50;4.72;;;;;;;;;;5098980;28;20024;-51
2021/06/17 08:34:35;;;;;;;20.92;7.55;;;;;;;;;;5098960;27;20490;-49
2021/06/17 08:37:04;;;;;;;12.05;6.85;;;;;;;;;;5101339;27;20118;-51
2021/06/17 08:39:29;;;;;;;18.27;7.07;;;;;;;;;;5100377;27;20015;-50
2021/06/17 08:41:55;;;;;;;10.25;6.35;;;;;;;;;;5095862;27;20028;-51
2021/06/17 08:44:21;;;;;;;10.88;5.95;;;;;;;;;;5094874;28;20019;-53
2021/06/17 08:46:46;;;;;;;19.75;6.68;;;;;;;;;;5098225;27;20122;-54
2021/06/17 08:49:11;;;;;;;20.85;7.90;;;;;;;;;;5097485;27;20062;-52
2021/06/17 08:51:40;;;;;;;24.70;8.95;;;;;;;;;;5100921;27;20046;-53
2021/06/17 08:54:06;;;;;;;33.40;6.63;;;;;;;;;;5101213;27;20019;-55
2021/06/17 08:56:31;;;;;;;19.08;8.95;;;;;;;;;;5093931;27;20031;-47
2021/06/17 08:58:57;;;;;;;24.20;7.15;;;;;;;;;;5098891;27;20038;-52
2021/06/17 09:01:23;;;;;;;16.70;9.10;;;;;;;;;;5099341;27;20024;-53
2021/06/17 09:03:49;;;;;;;6.55;4.00;;;;;;;;;;5100654;27;20148;-50
2021/06/17 09:06:18;;;;;;;13.02;5.88;;;;;;;;;;5099422;27;20769;-53
2021/06/17 09:08:55;;;;;;;8.85;5.95;;;;;;;;;;5095989;27;20047;-50
2021/06/17 09:11:21;;;;;;;17.77;6.30;;;;;;;;;;5099248;28;20103;-50
2021/06/17 09:13:46;;;;;;;23.08;7.72;;;;;;;;;;5098367;28;20368;-53
2021/06/17 09:16:22;;;;;;;26.20;5.72;;;;;;;;;;5099721;27;20054;-51
2021/06/17 09:18:47;;;;;;;25.02;7.57;;;;;;;;;;5100007;28;20035;-48
2021/06/17 09:21:12;;;;;;;20.75;7.20;;;;;;;;;;5095562;28;20020;-47
2021/06/17 09:23:39;;;;;;;29.13;10.23;;;;;;;;;;5100916;27;20020;-47
2021/06/17 09:26:05;;;;;;;15.57;7.57;;;;;;;;;;5096290;28;20020;-53
2021/06/17 09:28:49;;;;;;;16.67;7.68;;;;;;;;;;5096190;28;20718;-52
2021/06/17 09:31:14;;;;;;;17.80;5.45;;;;;;;;;;5097211;28;20035;-50
2021/06/17 09:33:40;;;;;;;18.75;7.28;;;;;;;;;;5093513;28;20020;-51
2021/06/17 09:36:06;;;;;;;22.98;7.15;;;;;;;;;;5098084;28;20076;-50
2021/06/17 09:38:43;;;;;;;19.73;7.82;;;;;;;;;;5099205;28;20100;-56
2021/06/17 09:41:08;;;;;;;16.60;6.93;;;;;;;;;;5097423;28;20497;-55
2021/06/17 09:43:41;;;;;;;16.98;7.22;;;;;;;;;;5095385;28;20051;-53
2021/06/17 09:46:09;;;;;;;20.33;7.72;;;;;;;;;;5105523;28;20026;-51
2021/06/17 09:48:43;;;;;;;9.23;5.80;;;;;;;;;;5105545;28;20032;-52
2021/06/17 09:51:27;;;;;;;31.02;6.80;;;;;;;;;;5103885;28;20456;-53
2021/06/17 09:53:54;;;;;;;20.40;6.90;;;;;;;;;;5099202;28;20020;-53
2021/06/17 09:56:30;;;;;;;19.75;7.50;;;;;;;;;;5094306;28;20044;-50
2021/06/17 09:58:56;;;;;;;16.75;6.45;;;;;;;;;;5100415;27;20027;-55
2021/06/17 10:01:30;;;;;;;12.82;6.03;;;;;;;;;;5096579;28;20321;-54
2021/06/17 10:04:03;;;;;;;37.60;7.95;;;;;;;;;;5098191;28;20018;-55
2021/06/17 10:06:28;;;;;;;17.58;6.30;;;;;;;;;;5096588;28;20048;-51
2021/06/17 10:08:54;;;;;;;18.50;6.07;;;;;;;;;;5104497;27;20023;-49
2021/06/17 10:11:21;;;;;;;30.52;7.78;;;;;;;;;;5100452;27;20016;-50
2021/06/17 10:13:46;;;;;;;12.68;6.47;;;;;;;;;;5099118;27;20108;-40
2021/06/17 10:16:17;;;;;;;11.27;6.07;;;;;;;;;;5103296;27;20530;-53
2021/06/17 10:18:43;;;;;;;9.65;5.43;;;;;;;;;;5104664;27;20104;-48
2021/06/17 10:21:12;;;;;;;11.20;5.50;;;;;;;;;;5107134;27;20125;-51
2021/06/17 10:23:38;;;;;;;12.98;8.25;;;;;;;;;;5107753;27;20016;-47
2021/06/17 10:26:04;;;;;;;31.80;8.45;;;;;;;;;;5099080;27;20547;-49
2021/06/17 10:28:41;;;;;;;15.10;6.72;;;;;;;;;;5102067;27;20031;-55
2021/06/17 10:31:06;;;;;;;21.17;5.80;;;;;;;;;;5096472;27;20030;-53
2021/06/17 10:33:34;;;;;;;6.35;3.50;;;;;;;;;;5100256;27;20024;-50
2021/06/17 10:36:24;;;;;;;23.75;7.03;;;;;;;;;;5107675;27;20378;-52
2021/06/17 10:39:05;;;;;;;12.00;6.38;;;;;;;;;;5104903;27;20027;-52
2021/06/17 10:42:00;;;;;;;6.22;5.05;;;;;;;;;;5102070;27;20075;-54
2021/06/17 10:44:43;;;;;;;13.07;7.18;;;;;;;;;;5086594;27;20051;-52
2021/06/17 10:47:09;;;;;;;22.17;5.70;;;;;;;;;;5099281;27;20131;-52
2021/06/17 10:49:49;;;;;;;14.20;8.07;;;;;;;;;;5098896;27;20420;-49
2021/06/17 10:52:25;;;;;;;22.17;8.77;;;;;;;;;;5102190;27;20031;-49
2021/06/17 10:54:54;;;;;;;27.98;7.95;;;;;;;;;;5099756;27;20034;-54
2021/06/17 10:57:38;;;;;;;20.80;7.87;;;;;;;;;;5101259;27;20024;-52
2021/06/17 11:00:25;;;;;;;14.15;7.80;;;;;;;;;;5102542;27;20019;-51
2021/06/17 11:02:55;;;;;;;13.88;7.43;;;;;;;;;;5103700;27;20099;-50
2021/06/17 11:05:43;;;;;;;14.20;6.00;;;;;;;;;;5098463;27;20019;-47
2021/06/17 11:08:15;;;;;;;16.52;8.50;;;;;;;;;;5098933;27;20721;-48
2021/06/17 11:10:45;;;;;;;5.93;4.20;;;;;;;;;;5097387;27;20048;-51
2021/06/17 11:13:31;;;;;;;18.90;6.63;;;;;;;;;;5097850;27;20027;-53
2021/06/17 11:15:57;;;;;;;14.45;5.22;;;;;;;;;;5097530;27;20028;-52
2021/06/17 11:18:45;;;;;;;15.98;7.43;;;;;;;;;;5099228;27;20029;-58
2021/06/17 11:21:26;;;;;;;9.13;5.93;;;;;;;;;;5099335;27;20028;-58
2021/06/17 11:23:58;;;;;;;7.95;4.97;;;;;;;;;;5099510;28;20011;-54
2021/06/17 11:26:35;;;;;;;10.77;4.63;;;;;;;;;;5099773;27;20085;-51
2021/06/17 11:29:00;;;;;;;14.98;6.63;;;;;;;;;;5105322;27;20020;-49
2021/06/17 11:31:42;;;;;;;17.17;6.45;;;;;;;;;;5098709;27;20463;-43
2021/06/17 11:34:08;;;;;;;26.17;8.85;;;;;;;;;;5101680;27;20024;-39
2021/06/17 11:36:34;;;;;;;15.48;3.90;;;;;;;;;;5100705;27;20050;-47
2021/06/17 11:39:02;;;;;;;14.40;7.60;;;;;;;;;;5099640;27;20055;-40
2021/06/17 11:41:30;;;;;;;11.68;6.60;;;;;;;;;;5100192;27;20020;-45
2021/06/17 11:43:59;;;;;;;15.00;7.03;;;;;;;;;;5099206;27;20018;-48
2021/06/17 11:46:27;;;;;;;15.93;7.43;;;;;;;;;;5099511;27;20811;-47
2021/06/17 11:48:54;;;;;;;13.50;6.38;;;;;;;;;;5100399;27;20035;-50
2021/06/17 11:51:20;;;;;;;17.35;6.38;;;;;;;;;;5098834;27;20023;-48
2021/06/17 11:53:53;;;;;;;15.13;4.47;;;;;;;;;;5096465;27;20083;-45
2021/06/17 11:56:29;;;;;;;23.30;6.03;;;;;;;;;;5094944;28;20233;-44
2021/06/17 11:58:55;;;;;;;8.57;5.68;;;;;;;;;;5099694;27;20024;-48
2021/06/17 12:01:21;;;;;;;7.25;6.57;;;;;;;;;;5104496;27;20131;-44
2021/06/17 12:03:57;;;;;;;10.05;4.70;;;;;;;;;;5101515;27;20023;-44
2021/06/17 12:06:22;;;;;;;15.85;5.70;;;;;;;;;;5098274;27;20568;-49
2021/06/17 12:09:00;;;;;;;26.52;7.40;;;;;;;;;;5103493;27;20047;-46
2021/06/17 12:11:27;;;;;;;12.70;5.50;;;;;;;;;;5098446;27;20467;-47
2021/06/17 12:13:54;;;;;;;15.13;6.03;;;;;;;;;;5103780;27;20031;-46
2021/06/17 12:16:19;;;;;;;19.75;5.53;;;;;;;;;;5099250;27;20032;-41
2021/06/17 12:18:45;;;;;;;9.38;5.80;;;;;;;;;;5094646;27;20027;-44
2021/06/17 12:21:10;;;;;;;18.20;9.15;;;;;;;;;;5098016;27;20027;-42
2021/06/17 12:23:35;;;;;;;24.23;8.20;;;;;;;;;;5096828;27;20028;-44
2021/06/17 12:26:04;;;;;;;23.52;9.45;;;;;;;;;;5099054;28;20015;-44
2021/06/17 12:28:30;;;;;;;14.43;6.50;;;;;;;;;;5097623;27;20031;-43
2021/06/17 12:30:56;;;;;;;26.00;8.00;;;;;;;;;;5099614;27;20038;-40
2021/06/17 12:33:29;;;;;;;11.13;6.45;;;;;;;;;;5098619;27;20575;-43
2021/06/17 12:35:55;;;;;;;25.05;6.53;;;;;;;;;;5098106;27;20035;-45
2021/06/17 12:38:23;;;;;;;9.15;6.18;;;;;;;;;;5105430;27;20035;-43
2021/06/17 12:40:48;;;;;;;19.27;6.28;;;;;;;;;;5098595;27;20030;-42
2021/06/17 12:43:18;;;;;;;9.02;4.20;;;;;;;;;;5099938;27;20015;-47
2021/06/17 12:45:58;;;;;;;12.98;5.18;;;;;;;;;;5094330;28;20075;-41
2021/06/17 12:53:58;;;;;;;15.52;7.88;;;;;;;;;;5103857;27;20040;-43
2021/06/17 12:56:23;;;;;;;19.92;7.85;;;;;;;;;;5101548;27;20136;-42
2021/06/17 12:58:53;;;;;;;7.00;5.80;;;;;;;;;;5096708;27;20279;-41
2021/06/17 13:01:22;;;;;;;10.85;6.00;;;;;;;;;;5099194;27;20613;-40
2021/06/17 13:03:50;;;;;;;12.57;5.32;;;;;;;;;;5099670;27;20054;-40
2021/06/17 13:06:32;;;;;;;12.38;7.32;;;;;;;;;;5096683;27;20537;-41
2021/06/17 13:08:57;;;;;;;7.35;5.00;;;;;;;;;;5097913;27;20718;-41
2021/06/17 13:11:26;;;;;;;18.08;8.07;;;;;;;;;;5099543;28;20026;-42
2021/06/17 13:14:06;;;;;;;9.73;5.57;;;;;;;;;;5097883;28;20019;-41
2021/06/17 13:16:34;;;;;;;16.70;6.32;;;;;;;;;;5098587;28;20126;-42
2021/06/17 13:18:59;;;;;;;7.43;5.65;;;;;;;;;;5103389;28;20050;-46
2021/06/17 13:21:25;;;;;;;16.92;7.00;;;;;;;;;;5106467;27;20047;-46
2021/06/17 13:23:50;;;;;;;13.88;6.88;;;;;;;;;;5104607;27;20903;-46
2021/06/17 13:26:18;;;;;;;32.38;8.30;;;;;;;;;;5093869;28;20024;-43
2021/06/17 13:28:44;;;;;;;14.85;7.35;;;;;;;;;;5091576;28;20081;-43
2021/06/17 13:31:31;;;;;;;18.60;6.97;;;;;;;;;;5101682;28;20038;-42
2021/06/17 13:33:56;;;;;;;14.80;7.93;;;;;;;;;;5094026;28;20075;-41
2021/06/17 13:36:22;;;;;;;12.65;5.00;;;;;;;;;;5094354;28;20714;-47
2021/06/17 13:38:47;;;;;;;11.95;5.22;;;;;;;;;;5098032;28;20084;-40
2021/06/17 13:41:13;;;;;;;7.65;3.40;;;;;;;;;;5096920;28;20506;-42
2021/06/17 13:43:38;;;;;;;7.90;5.25;;;;;;;;;;5101928;27;20027;-40
2021/06/17 13:46:05;;;;;;;10.68;6.50;;;;;;;;;;5099173;27;20023;-45
2021/06/17 13:48:35;;;;;;;14.80;6.82;;;;;;;;;;5099946;27;20054;-40
2021/06/17 13:51:00;;;;;;;13.07;5.28;;;;;;;;;;5100023;27;20701;-39
2021/06/17 13:53:26;;;;;;;15.40;6.80;;;;;;;;;;5104837;27;20472;-40
2021/06/17 13:55:51;;;;;;;20.20;6.43;;;;;;;;;;5104427;27;20121;-39
2021/06/17 13:58:16;;;;;;;17.10;5.85;;;;;;;;;;5101770;27;20024;-39
2021/06/17 14:00:42;;;;;;;11.32;4.88;;;;;;;;;;5102193;27;20506;-42
2021/06/17 14:03:08;;;;;;;23.85;6.13;;;;;;;;;;5100169;27;20015;-40
2021/06/17 14:05:34;;;;;;;18.10;6.13;;;;;;;;;;5098947;27;20082;-39
2021/06/17 14:07:59;;;;;;;11.52;3.67;;;;;;;;;;5097729;27;20051;-40
2021/06/17 14:10:30;;;;;;;12.68;5.93;;;;;;;;;;5096367;28;20146;-43
2021/06/17 14:12:56;;;;;;;28.20;6.95;;;;;;;;;;5101623;28;20509;-41
2021/06/17 14:15:21;;;;;;;20.90;7.47;;;;;;;;;;5101656;27;20031;-40
2021/06/17 14:17:47;;;;;;;28.05;7.50;;;;;;;;;;5101769;27;20061;-42
2021/06/17 14:20:13;;;;;;;9.77;4.85;;;;;;;;;;5098718;27;20653;-42
2021/06/17 14:22:38;;;;;;;13.70;6.40;;;;;;;;;;5105170;27;20440;-42
2021/06/17 14:25:05;;;;;;;13.70;3.72;;;;;;;;;;5102196;27;20031;-40
2021/06/17 14:27:30;;;;;;;21.70;7.03;;;;;;;;;;5106221;27;20033;-40
2021/06/17 14:29:58;;;;;;;13.50;5.55;;;;;;;;;;5108180;27;20027;-40
2021/06/17 14:32:24;;;;;;;9.50;4.65;;;;;;;;;;5097523;27;20042;-41
2021/06/17 14:34:49;;;;;;;15.15;4.35;;;;;;;;;;5103796;27;20519;-40
2021/06/17 14:37:15;;;;;;;11.30;5.80;;;;;;;;;;5098850;27;20399;-42
2021/06/17 14:39:40;;;;;;;13.75;5.22;;;;;;;;;;5093227;27;20089;-41
2021/06/17 14:42:06;;;;;;;14.40;5.00;;;;;;;;;;5104099;27;20122;-43